Ooltewah, Tennessee
Current Conditions -  °F | °C
As of 10:53 AM on Thursday 18 Dec 2014 (Local Time) from KCHA Reporting Station
Broken Clouds Broken Clouds  
Wind Chill: 37°   Ceiling: 7500
Heat Index: 40°   Visibility: 10mi
Dew Point: 32°   Wind: 5mph
Humidity: 73%   Direction: 10°N
Pressure: 30.23"   Gusts: NA
Location:  35.08°N, 85.06°W
Report Text: KCHA 181553Z 01004KT 10SM SCT060 BKN075 BKN090 BKN150 04/00 A3023 RMK AO2 SLP239 T00440000
Loading
Personal Weather Stations






























Interactive Weather Map New forecast layout! Learn more

10-Day Weather Forecast

Advertisements
Track Severe Weather on mobile